aviador You're here:

YPXM Decoded Metar

CHRISTMAS ISLAND in CHRISTMAS ISLAND
Report Time2017-11-23 03:00:00
UTC Time2017-11-23 03:27:56
Flight Rules vfr VFR
Wind140° at 08 kt
W.Decomp.*RWY 18: 6.0 kt HW 5.2 kt LCW
W.Rank140° ranks 4
Current wind is above 140° avg. (7.9)
Visibility9999 m
Phenomena:N/A
Clouds:N/A
Expected CloudBase > 2,000 ft AGL from Temp-Dew spread
CeilingNone
Temp28°C (ISA +15)
Dew Point23°C (74% RH)
Heat Index31.2°C
QNH1010 hPa
Density Alt3,012 ft
Elevation850 ft
Report Wrong Elevation
Raw Report
METAR YPXM 230300Z AUTO 14008KT 9999 // NCD 28/23 Q1010=

Extra information for YPXM:More info

Metar Taf Metar & Taf Last 4 Metars F.Rules Stats Wind Profile Meteogram Temp Stats Airport Information Weather charts Add Link Nearby VenuesMetar ALERT Operation Metar Decoded Social comments